Time;durP1;ratioP1;P1;durP2;ratioP2;P2;SDS_P1;SDS_P2;PMS_P1;PMS_P2;Temp;Humidity;BMP_temperature;BMP_pressure;BME280_temperature;BME280_humidity;BME280_pressure;Samples;Min_cycle;Max_cycle;Signal;HPM_P1;HPM_P2
2022/08/05 00:02:17;;;;;;;5.20;2.03;;;24.30;99.90;;;24.87;100.00;100661.81;5185477;28;20037;-70
2022/08/05 00:04:51;;;;;;;5.22;2.17;;;24.30;99.90;;;24.85;100.00;100663.66;5184938;28;20503;-70
2022/08/05 00:07:23;;;;;;;5.03;2.20;;;24.30;99.90;;;24.85;100.00;100674.31;5183593;28;20048;-69
2022/08/05 00:09:55;;;;;;;3.20;2.00;;;24.20;99.90;;;24.81;100.00;100659.31;5185086;28;20124;-69
2022/08/05 00:12:27;;;;;;;3.72;2.20;;;24.20;99.90;;;24.80;100.00;100657.56;5185150;28;20136;-69
2022/08/05 00:14:59;;;;;;;4.60;2.42;;;24.20;99.90;;;24.73;100.00;100647.97;5185254;28;20450;-70
2022/08/05 00:17:32;;;;;;;5.05;2.10;;;24.10;99.90;;;24.66;100.00;100639.25;5183740;28;20050;-69
2022/08/05 00:20:07;;;;;;;3.28;2.20;;;24.10;99.90;;;24.59;100.00;100640.34;5185120;28;20121;-70
2022/08/05 00:22:39;;;;;;;3.50;2.28;;;24.00;99.90;;;24.54;100.00;100640.44;5185073;28;20164;-69
2022/08/05 00:25:11;;;;;;;5.82;2.47;;;23.90;99.90;;;24.49;100.00;100638.81;5185124;28;20521;-70
2022/08/05 00:27:43;;;;;;;3.60;2.42;;;23.90;99.90;;;24.45;100.00;100640.69;5184678;28;20090;-70
2022/08/05 00:30:16;;;;;;;3.30;2.13;;;23.80;99.90;;;24.40;100.00;100645.25;5184894;28;20534;-69
2022/08/05 00:32:48;;;;;;;4.97;2.42;;;23.80;99.90;;;24.37;100.00;100634.66;5184921;28;20279;-69
2022/08/05 00:35:22;;;;;;;7.32;2.15;;;23.80;99.90;;;24.35;100.00;100639.16;5185045;28;20121;-70
2022/08/05 00:37:54;;;;;;;3.33;2.35;;;23.80;99.90;;;24.30;100.00;100630.34;5184569;28;20046;-70
2022/08/05 00:40:27;;;;;;;5.32;2.53;;;23.70;99.90;;;24.27;100.00;100619.78;5184901;28;20046;-70
2022/08/05 00:43:02;;;;;;;3.95;2.03;;;23.70;99.90;;;24.26;100.00;100620.72;5185011;28;20499;-71
2022/08/05 00:45:34;;;;;;;3.50;2.22;;;23.70;99.90;;;24.23;100.00;100626.09;5184808;28;20131;-69
2022/08/05 00:48:08;;;;;;;5.97;2.13;;;23.60;99.90;;;24.21;100.00;100617.28;5184755;28;20053;-69
2022/08/05 00:50:45;;;;;;;5.03;2.50;;;23.60;99.90;;;24.22;100.00;100616.34;5184742;28;20046;-70
2022/08/05 00:53:19;;;;;;;3.40;2.40;;;23.60;99.90;;;24.24;100.00;100622.50;5183487;28;20144;-69
2022/08/05 00:55:52;;;;;;;5.13;2.28;;;23.60;99.90;;;24.23;100.00;100626.09;5183328;28;20144;-71
2022/08/05 00:58:24;;;;;;;3.50;2.00;;;23.60;99.90;;;24.20;100.00;100620.84;5184678;28;20133;-70
2022/08/05 01:00:56;;;;;;;5.55;2.30;;;23.60;99.90;;;24.17;100.00;100626.22;5183204;28;20140;-70
2022/08/05 01:03:29;;;;;;;4.78;2.75;;;23.50;99.90;;;24.06;100.00;100624.72;5183319;28;20145;-70
2022/08/05 01:06:02;;;;;;;4.28;2.47;;;23.50;99.90;;;24.00;100.00;100627.53;5184554;28;20152;-69
2022/08/05 01:08:35;;;;;;;4.47;2.22;;;23.40;99.90;;;23.99;100.00;100632.84;5183371;28;20122;-70
2022/08/05 01:11:12;;;;;;;5.55;2.47;;;23.40;99.90;;;23.95;100.00;100632.06;5184489;28;20117;-70
2022/08/05 01:14:00;;;;;;;3.47;2.33;;;23.40;99.90;;;23.92;100.00;100641.91;5184712;28;20133;-70
2022/08/05 01:16:40;;;;;;;3.85;2.55;;;23.30;99.90;;;23.90;100.00;100638.41;5184568;28;20050;-69
2022/08/05 01:19:28;;;;;;;3.97;2.38;;;23.30;99.90;;;23.87;100.00;100646.47;5188253;28;20073;-69
2022/08/05 01:22:32;;;;;;;3.33;2.35;;;23.30;99.90;;;23.84;100.00;100650.06;5188213;28;20113;-70
2022/08/05 01:25:48;;;;;;;4.95;2.70;;;23.20;99.90;;;23.84;100.00;100644.72;5172485;28;20145;-69
2022/08/05 01:28:27;;;;;;;3.80;2.20;;;23.20;99.90;;;23.82;100.00;100646.56;5186799;28;20127;-69
2022/08/05 01:31:05;;;;;;;3.45;2.13;;;23.20;99.90;;;23.78;100.00;100639.53;5204666;23;20050;-84
2022/08/05 01:33:45;;;;;;;4.57;2.13;;;23.20;99.90;;;23.75;100.00;100642.28;5179201;28;20492;-84
2022/08/05 01:36:20;;;;;;;4.05;2.03;;;23.20;99.90;;;23.73;100.00;100636.97;5184417;28;20508;-84
2022/08/05 01:38:53;;;;;;;3.85;2.03;;;23.20;99.90;;;23.73;100.00;100636.09;5152285;28;20046;-84
2022/08/05 01:41:26;;;;;;;4.72;2.30;;;23.20;99.90;;;23.69;100.00;100632.66;5149600;28;20051;-83
2022/08/05 01:44:02;;;;;;;4.03;2.40;;;23.10;99.90;;;23.68;100.00;100644.22;5168754;28;20073;-84
2022/08/05 01:46:35;;;;;;;3.83;2.25;;;23.10;99.90;;;23.66;100.00;100639.81;5169080;28;20042;-84
2022/08/05 01:49:11;;;;;;;4.72;2.35;;;23.00;99.90;;;23.63;100.00;100632.78;5169461;28;20173;-83
2022/08/05 01:51:43;;;;;;;5.22;2.55;;;23.10;99.90;;;23.60;100.00;100634.56;5170638;28;20046;-83
2022/08/05 01:54:20;;;;;;;4.78;2.33;;;23.00;99.90;;;23.58;100.00;100633.75;5168990;28;20118;-84
2022/08/05 01:56:54;;;;;;;4.03;2.42;;;23.00;99.90;;;23.54;100.00;100641.81;5168916;28;20038;-84
2022/08/05 01:59:29;;;;;;;3.58;2.25;;;23.00;99.90;;;23.51;100.00;100631.22;5168743;28;20050;-83
2022/08/05 02:02:02;;;;;;;4.45;2.88;;;22.90;99.90;;;23.46;100.00;100622.44;5168771;28;20420;-84
2022/08/05 02:04:38;;;;;;;3.45;2.20;;;22.90;99.90;;;23.45;100.00;100626.03;5169052;28;20050;-84
2022/08/05 02:07:10;;;;;;;4.03;2.47;;;22.90;99.90;;;23.42;100.00;100634.06;5169614;28;20061;-85
2022/08/05 02:09:43;;;;;;;3.78;2.35;;;22.90;99.90;;;23.42;100.00;100650.03;5169581;28;20054;-84
2022/08/05 02:12:23;;;;;;;3.63;2.08;;;22.90;99.90;;;23.43;100.00;100659.75;5169015;28;20042;-83
2022/08/05 02:15:03;;;;;;;5.97;2.55;;;22.90;99.90;;;23.42;100.00;100658.00;5170873;28;20117;-84
2022/08/05 02:17:39;;;;;;;;;;;22.90;99.90;;;23.38;100.00;100666.94;5169503;28;20046;-84
2022/08/05 02:20:20;;;;;;;3.95;2.10;;;22.90;99.90;;;23.37;100.00;100675.84;5169368;28;19921;-83
2022/08/05 02:22:58;;;;;;;4.60;2.25;;;22.80;99.90;;;23.33;100.00;100699.84;5166811;28;20057;-83
2022/08/05 02:25:35;;;;;;;3.35;2.40;;;22.80;99.90;;;23.27;100.00;100738.06;5148866;28;20076;-83
2022/08/05 02:28:10;;;;;;;7.43;2.95;;;22.80;99.90;;;23.15;100.00;100759.59;5148554;28;20061;-84
2022/08/05 02:30:53;;;;;;;6.95;2.53;;;22.70;99.90;;;23.05;100.00;100779.25;5165413;28;20072;-83
2022/08/05 02:33:26;;;;;;;3.42;2.33;;;22.60;99.90;;;22.98;100.00;100805.94;5148280;28;20047;-83
2022/08/05 02:36:00;;;;;;;4.65;2.38;;;22.50;99.90;;;22.91;100.00;100820.22;5148748;28;20505;-84
2022/08/05 02:38:34;;;;;;;4.95;2.10;;;22.40;99.90;;;22.85;100.00;100820.28;5148624;28;20133;-84
2022/08/05 02:41:09;;;;;;;4.63;2.45;;;22.40;99.90;;;22.73;100.00;100812.50;5164583;28;20053;-84
2022/08/05 02:43:42;;;;;;;3.92;2.45;;;22.30;99.90;;;22.61;100.00;100802.91;5149023;28;20054;-82
2022/08/05 02:46:17;;;;;;;6.35;2.45;;;22.20;99.90;;;22.54;100.00;100797.72;5164436;28;20051;-84
2022/08/05 02:48:51;;;;;;;5.90;2.45;;;22.10;99.90;;;22.50;100.00;100796.03;5148007;28;20101;-83
2022/08/05 02:51:24;;;;;;;5.10;2.47;;;22.10;99.90;;;22.43;100.00;100790.81;5148226;28;20038;-83
2022/08/05 02:53:56;;;;;;;5.72;3.05;;;22.00;99.90;;;22.44;100.00;100803.19;5147867;28;20042;-84
2022/08/05 02:56:29;;;;;;;8.40;4.47;;;22.10;99.90;;;22.43;100.00;100787.25;5147675;28;20051;-84
2022/08/05 02:59:02;;;;;;;7.55;4.18;;;22.00;99.90;;;22.41;100.00;100755.41;5148390;28;20051;-82
2022/08/05 03:01:39;;;;;;;5.22;3.40;;;22.00;99.90;;;22.39;100.00;100774.91;5164178;28;20193;-82
2022/08/05 03:04:15;;;;;;;5.05;2.90;;;22.00;99.90;;;22.39;100.00;100789.06;5147523;28;20051;-83
2022/08/05 03:06:47;;;;;;;6.13;3.42;;;22.00;99.90;;;22.36;100.00;100807.69;5163511;28;20504;-84
2022/08/05 03:09:20;;;;;;;6.45;3.58;;;21.90;99.90;;;22.34;100.00;100805.97;5147968;28;20683;-83
2022/08/05 03:11:52;;;;;;;6.07;3.17;;;21.90;99.90;;;22.30;100.00;100788.31;5148380;28;20053;-83
2022/08/05 03:14:25;;;;;;;8.13;2.90;;;21.90;99.90;;;22.26;100.00;100792.78;5164496;28;20058;-83
2022/08/05 03:16:59;;;;;;;5.10;2.53;;;21.80;99.90;;;22.27;100.00;100807.81;5163493;28;20149;-83
2022/08/05 03:19:31;;;;;;;5.50;2.63;;;21.80;99.90;;;22.27;100.00;100813.13;5147573;28;20050;-83
2022/08/05 03:22:03;;;;;;;6.85;3.60;;;21.80;99.90;;;22.24;100.00;100812.31;5163850;28;20049;-85
2022/08/05 03:24:36;;;;;;;4.22;2.80;;;21.80;99.90;;;22.21;100.00;100805.25;5164118;28;20668;-83
2022/08/05 03:27:08;;;;;;;6.43;2.92;;;21.70;99.90;;;22.20;100.00;100809.69;5149147;28;20054;-83
2022/08/05 03:29:40;;;;;;;6.15;2.80;;;21.70;99.90;;;22.23;100.00;100818.50;5148635;28;20042;-84
2022/08/05 03:32:15;;;;;;;4.55;2.85;;;21.70;99.90;;;22.19;100.00;100825.63;5147540;28;20057;-85
2022/08/05 03:34:48;;;;;;;6.68;3.08;;;21.70;99.90;;;22.19;100.00;100830.94;5148431;28;20074;-85
2022/08/05 03:37:21;;;;;;;5.03;3.22;;;21.70;99.90;;;22.21;100.00;100826.50;5149539;28;20432;-84
2022/08/05 03:39:56;;;;;;;5.82;3.10;;;21.70;99.90;;;22.26;100.00;100826.44;5149309;28;20085;-84
2022/08/05 03:42:28;;;;;;;7.05;2.88;;;21.70;99.90;;;22.26;100.00;100829.97;5148828;28;20078;-85
2022/08/05 03:45:00;;;;;;;6.53;3.08;;;21.70;99.90;;;22.26;100.00;100821.13;5148521;28;20070;-82
2022/08/05 03:47:34;;;;;;;6.90;3.50;;;21.80;99.90;;;22.25;100.00;100817.59;5149446;28;20053;-85
2022/08/05 03:50:07;;;;;;;6.80;3.35;;;21.80;99.90;;;22.21;100.00;100821.19;5151049;28;20117;-84
2022/08/05 03:52:48;;;;;;;7.03;3.55;;;21.70;99.90;;;22.21;100.00;100821.19;5149272;28;20046;-83
2022/08/05 03:55:28;;;;;;;4.93;2.85;;;21.70;99.90;;;22.21;100.00;100813.22;5149507;28;20051;-84
2022/08/05 03:58:02;;;;;;;8.52;3.15;;;21.70;99.90;;;22.19;100.00;100810.59;5165801;28;20051;-83
2022/08/05 04:00:34;;;;;;;6.65;3.85;;;21.70;99.90;;;22.19;100.00;100796.44;5166763;28;20063;-84
2022/08/05 04:03:09;;;;;;;7.28;3.83;;;21.70;99.90;;;22.16;100.00;100791.16;5150635;28;20053;-84
2022/08/05 04:05:43;;;;;;;6.90;3.45;;;21.70;99.90;;;22.15;100.00;100784.97;5153528;28;20425;-85
2022/08/05 04:08:16;;;;;;;5.95;3.13;;;21.60;99.90;;;22.15;100.00;100784.09;5169457;28;20520;-84
2022/08/05 04:10:49;;;;;;;7.05;3.15;;;21.60;99.90;;;22.16;100.00;100781.41;5147859;28;20121;-83
2022/08/05 04:13:21;;;;;;;7.68;4.25;;;21.70;99.90;;;22.15;100.00;100778.78;5147507;28;20416;-84
2022/08/05 04:15:54;;;;;;;10.52;4.68;;;21.60;99.90;;;22.12;100.00;100774.41;5147437;28;20043;-83
2022/08/05 04:18:28;;;;;;;7.10;4.32;;;21.60;99.90;;;22.12;100.00;100768.22;5168282;28;20073;-84
2022/08/05 04:21:00;;;;;;;;;;;21.60;99.90;;;22.09;100.00;100752.31;5153880;28;20059;-84
2022/08/05 04:23:34;;;;;;;10.23;5.78;;;21.60;99.90;;;22.08;100.00;100742.56;5153152;28;19928;-83
2022/08/05 04:26:06;;;;;;;8.73;5.28;;;21.60;99.90;;;22.08;100.00;100721.31;5170473;28;20082;-84
2022/08/05 04:28:39;;;;;;;10.57;5.70;;;21.60;99.90;;;22.00;100.00;100709.94;5153919;28;20051;-83
2022/08/05 04:31:11;;;;;;;10.05;5.63;;;21.50;99.90;;;21.93;100.00;100680.84;5150117;28;20079;-83
2022/08/05 04:33:44;;;;;;;12.50;6.55;;;21.50;99.90;;;21.77;100.00;100641.25;5146386;28;20055;-84
2022/08/05 04:36:17;;;;;;;9.63;5.10;;;21.40;99.90;;;21.69;100.00;100638.69;5146086;28;20058;-83
2022/08/05 04:38:49;;;;;;;9.82;4.95;;;21.30;99.90;;;21.68;100.00;100635.19;5162347;28;20501;-84
2022/08/05 04:41:21;;;;;;;10.20;5.43;;;21.30;99.90;;;21.70;100.00;100640.44;5146235;28;20142;-84
2022/08/05 04:43:53;;;;;;;8.18;4.60;;;21.30;99.90;;;21.70;100.00;100659.03;5161747;28;20061;-83
2022/08/05 04:46:25;;;;;;;8.05;4.80;;;21.30;99.90;;;21.71;100.00;100659.91;5145873;28;20057;-84
2022/08/05 04:48:58;;;;;;;8.63;4.60;;;21.30;99.90;;;21.73;100.00;100659.00;5146957;28;20047;-84
2022/08/05 04:51:31;;;;;;;10.52;5.78;;;21.30;99.90;;;21.72;100.00;100665.22;5148623;28;20125;-84
2022/08/05 04:54:03;;;;;;;9.85;4.95;;;21.30;99.90;;;21.75;100.00;100667.81;5152228;28;20408;-83
2022/08/05 04:56:35;;;;;;;8.18;4.63;;;21.30;99.90;;;21.78;100.00;100694.31;5150458;28;20057;-83
2022/08/05 04:59:08;;;;;;;7.97;4.68;;;21.30;99.90;;;21.78;100.00;100709.31;5166869;28;20051;-84
2022/08/05 05:01:40;;;;;;;11.73;5.90;;;21.30;99.90;;;21.79;100.00;100711.97;5150441;28;20082;-85
2022/08/05 05:04:13;;;;;;;11.63;6.25;;;21.30;99.90;;;21.81;100.00;100736.72;5150990;28;20093;-84
2022/08/05 05:06:45;;;;;;;10.45;6.25;;;21.30;99.90;;;21.77;100.00;100745.59;5151373;28;20421;-83
2022/08/05 05:09:17;;;;;;;9.25;5.07;;;21.30;99.90;;;21.80;100.00;100750.88;5150532;28;20050;-84
2022/08/05 05:11:49;;;;;;;9.70;5.38;;;21.40;99.90;;;21.83;100.00;100744.63;5161509;28;20057;-84
2022/08/05 05:14:21;;;;;;;10.48;6.03;;;21.40;99.90;;;21.80;100.00;100756.19;5169764;28;20062;-85
2022/08/05 05:16:53;;;;;;;12.43;6.55;;;21.30;99.90;;;21.74;100.00;100766.00;5170192;28;20054;-83
2022/08/05 05:19:27;;;;;;;13.10;6.05;;;21.30;99.90;;;21.63;100.00;100774.94;5169624;28;20056;-83
2022/08/05 05:21:59;;;;;;;15.98;7.40;;;21.20;99.90;;;21.54;100.00;100780.34;5169422;28;20051;-84
2022/08/05 05:24:31;;;;;;;14.23;6.82;;;21.10;99.90;;;21.45;100.00;100779.53;5169239;28;20054;-83
2022/08/05 05:27:03;;;;;;;15.45;8.30;;;21.10;99.90;;;21.38;100.00;100768.13;5169991;28;20050;-84
2022/08/05 05:29:35;;;;;;;10.52;5.95;;;21.00;99.90;;;21.34;100.00;100763.75;5179737;28;20054;-82
2022/08/05 05:32:07;;;;;;;12.80;6.10;;;20.90;99.90;;;21.42;100.00;100761.91;5176363;28;20039;-84
2022/08/05 05:34:41;;;;;;;9.43;5.53;;;21.00;99.90;;;21.51;100.00;100750.31;5169712;28;20080;-83
2022/08/05 05:37:13;;;;;;;11.57;6.00;;;21.00;99.90;;;21.58;100.00;100752.00;5185425;28;20050;-84
2022/08/05 05:39:45;;;;;;;13.57;7.93;;;21.10;99.90;;;21.65;100.00;100759.03;5186234;28;20085;-86
2022/08/05 05:42:18;;;;;;;17.73;9.43;;;21.20;99.90;;;21.71;100.00;100766.88;5186108;28;20049;-84
2022/08/05 05:44:50;;;;;;;16.17;7.70;;;21.20;99.90;;;21.74;100.00;100772.16;5186465;28;20054;-84
2022/08/05 05:47:22;;;;;;;14.50;8.23;;;21.30;99.90;;;21.79;100.00;100780.97;5186191;28;20397;-83
2022/08/05 05:49:55;;;;;;;14.25;7.93;;;21.30;99.90;;;21.85;100.00;100791.50;5169571;28;20053;-84
2022/08/05 05:52:27;;;;;;;15.90;8.60;;;21.40;99.90;;;21.92;100.00;100793.19;5169335;28;20047;-83
2022/08/05 05:55:00;;;;;;;16.45;8.20;;;21.40;99.90;;;21.97;100.00;100773.66;5170748;28;20515;-84
2022/08/05 05:57:32;;;;;;;14.30;8.15;;;21.50;99.90;;;21.98;100.00;100780.75;5170780;28;20124;-82
2022/08/05 06:00:07;;;;;;;14.27;8.13;;;21.50;99.90;;;22.02;100.00;100793.06;5170380;28;20070;-79
2022/08/05 06:02:46;;;;;;;16.08;8.35;;;21.50;99.90;;;22.06;100.00;100802.75;5172927;28;20104;-80
2022/08/05 06:05:20;;;;;;;;;;;21.50;99.90;;;22.07;100.00;100791.25;5183824;28;20056;-80
2022/08/05 06:07:52;;;;;;;;;;;21.60;99.90;;;22.10;100.00;100801.84;5190561;28;20295;-79
2022/08/05 06:10:24;;;;;;;17.17;8.95;;;21.60;99.90;;;22.11;100.00;100804.50;5190445;28;19921;-81
2022/08/05 06:12:56;;;;;;;17.83;8.95;;;21.60;99.90;;;22.15;100.00;100789.41;5168649;28;20042;-79
2022/08/05 06:15:28;;;;;;;17.92;9.25;;;21.60;99.90;;;22.16;100.00;100791.16;5162009;28;20050;-81
2022/08/05 06:18:00;;;;;;;16.88;8.98;;;21.60;99.90;;;22.21;100.00;100794.63;5169240;28;20057;-80
2022/08/05 06:20:33;;;;;;;20.45;10.13;;;21.70;99.90;;;22.21;100.00;100798.16;5170217;28;20492;-82
2022/08/05 06:23:05;;;;;;;18.77;9.93;;;21.70;99.90;;;22.21;100.00;100797.28;5170509;28;20046;-80
2022/08/05 06:25:37;;;;;;;14.65;7.50;;;21.70;99.90;;;22.25;100.00;100800.78;5167848;28;20050;-75
2022/08/05 06:28:09;;;;;;;19.75;9.77;;;21.70;99.90;;;22.39;100.00;100806.78;5166643;28;20038;-75
2022/08/05 06:30:41;;;;;;;21.77;11.65;;;21.80;99.90;;;22.45;100.00;100812.03;5165036;28;20082;-76
2022/08/05 06:33:13;;;;;;;24.60;12.75;;;21.90;99.90;;;22.44;100.00;100821.78;5165598;28;20047;-77
2022/08/05 06:35:47;;;;;;;23.73;12.52;;;21.90;99.90;;;22.41;100.00;100813.81;5166298;28;20042;-76
2022/08/05 06:38:19;;;;;;;21.98;11.75;;;21.90;99.90;;;22.41;100.00;100808.50;5166565;28;20049;-76
2022/08/05 06:40:51;;;;;;;20.20;11.27;;;21.90;99.90;;;22.48;100.00;100810.19;5166125;28;20042;-76
2022/08/05 06:43:23;;;;;;;20.88;11.80;;;21.90;99.90;;;22.46;100.00;100822.63;5166433;28;20042;-77
2022/08/05 06:45:55;;;;;;;25.25;12.55;;;21.90;99.90;;;22.41;100.00;100813.81;5166045;28;20050;-76
2022/08/05 06:48:28;;;;;;;22.38;13.00;;;21.90;99.90;;;22.38;100.00;100808.56;5166238;28;20088;-76
2022/08/05 06:51:03;;;;;;;27.83;14.25;;;21.90;99.90;;;22.40;100.00;100819.16;5186651;28;20149;-77
2022/08/05 06:53:35;;;;;;;30.83;15.35;;;21.90;99.90;;;22.35;100.00;100821.88;5178313;28;20053;-76
2022/08/05 06:56:08;;;;;;;29.73;15.60;;;21.90;99.90;;;22.38;100.00;100823.63;5186178;28;20056;-77
2022/08/05 06:58:40;;;;;;;29.65;16.55;;;21.90;99.90;;;22.37;100.00;100833.38;5185211;28;20050;-76
2022/08/05 07:01:12;;;;;;;31.40;15.82;;;21.90;99.90;;;22.41;100.00;100840.38;5181402;28;20047;-76
2022/08/05 07:03:44;;;;;;;27.70;15.98;;;21.90;99.90;;;22.42;100.00;100839.47;5177587;28;20404;-77
2022/08/05 07:06:17;;;;;;;26.20;14.32;;;21.90;99.90;;;22.41;100.00;100836.84;5164651;28;20054;-79
2022/08/05 07:08:50;;;;;;;24.80;13.73;;;21.90;99.90;;;22.37;100.00;100844.00;5175799;28;20073;-78
2022/08/05 07:11:22;;;;;;;23.85;12.27;;;22.00;99.90;;;22.41;100.00;100840.38;5175794;28;20041;-78
2022/08/05 07:16:49;;;;;;;20.23;11.70;;;22.00;99.90;;;22.47;100.00;100860.69;5178688;28;20057;-78
2022/08/05 07:19:22;;;;;;;20.35;11.98;;;22.00;99.90;;;22.51;100.00;100856.22;5185973;28;20140;-78
2022/08/05 07:21:56;;;;;;;23.38;14.52;;;22.10;99.90;;;22.50;100.00;100865.09;5186367;28;20048;-77
2022/08/05 07:24:28;;;;;;;26.85;14.65;;;22.00;99.90;;;22.35;100.00;100869.66;5186721;28;20050;-77
2022/08/05 07:27:00;;;;;;;25.92;14.73;;;22.00;99.90;;;22.27;100.00;100868.91;5186728;28;20522;-78
2022/08/05 07:29:32;;;;;;;26.15;14.55;;;21.80;99.90;;;22.31;100.00;100873.28;5180692;28;20046;-78
2022/08/05 07:32:06;;;;;;;24.83;14.43;;;21.90;99.90;;;22.39;100.00;100868.75;5197184;22;20050;-83
2022/08/05 07:34:38;;;;;;;27.98;14.10;;;22.00;99.90;;;22.51;100.00;100888.09;5176295;28;20080;-86
2022/08/05 07:37:11;;;;;;;29.08;15.35;;;22.00;99.90;;;22.46;100.00;100881.03;5165654;28;20065;-83
2022/08/05 07:39:44;;;;;;;30.30;15.45;;;22.00;99.90;;;22.43;100.00;100885.50;5170367;28;20048;-84
2022/08/05 07:42:16;;;;;;;33.08;17.27;;;22.00;99.90;;;22.40;100.00;100890.88;5177497;28;20056;-84
2022/08/05 07:44:48;;;;;;;34.47;18.65;;;21.90;99.90;;;22.43;100.00;100886.41;5173529;28;20457;-83
2022/08/05 07:47:20;;;;;;;31.63;16.75;;;22.00;99.90;;;22.48;100.00;100884.56;5174357;28;20092;-84
2022/08/05 07:49:52;;;;;;;42.63;21.95;;;22.00;99.90;;;22.62;100.00;100886.16;5174602;28;20415;-82
2022/08/05 07:52:26;;;;;;;36.35;18.10;;;22.10;99.90;;;22.81;100.00;100897.41;5184427;28;20044;-82
2022/08/05 07:54:58;;;;;;;33.78;18.38;;;22.30;99.90;;;22.99;100.00;100895.41;5188414;28;20049;-80
2022/08/05 07:57:30;;;;;;;36.65;18.60;;;22.40;99.90;;;23.11;100.00;100897.00;5199597;28;20056;-81
2022/08/05 08:00:04;;;;;;;35.90;18.17;;;22.60;99.90;;;23.16;100.00;100896.94;5194315;28;20045;-81
2022/08/05 08:02:44;;;;;;;38.30;18.63;;;22.60;99.90;;;23.22;100.00;100899.53;5186374;28;20052;-82
2022/08/05 08:05:16;;;;;;;38.75;18.65;;;22.70;99.90;;;23.22;100.00;100911.03;5186741;28;20056;-82
2022/08/05 08:07:49;;;;;;;33.10;16.83;;;22.70;99.90;;;23.16;100.00;100915.56;5168986;28;20045;-81
2022/08/05 08:10:22;;;;;;;36.80;19.92;;;22.70;99.90;;;23.16;100.00;100926.19;5186106;28;20418;-81
2022/08/05 08:12:54;;;;;;;35.45;18.20;;;22.60;99.90;;;23.22;100.00;100920.78;5168880;28;20045;-82
2022/08/05 08:15:27;;;;;;;35.72;17.83;;;22.70;99.90;;;23.29;100.00;100928.66;5187081;28;20536;-82
2022/08/05 08:17:58;;;;;;;37.15;18.42;;;22.70;99.90;;;23.40;100.00;100933.78;5170112;28;20046;-80
2022/08/05 08:20:31;;;;;;;35.92;17.48;;;22.80;99.90;;;23.47;100.00;100939.88;5169742;28;20054;-83
2022/08/05 08:23:06;;;;;;;39.28;19.05;;;22.90;99.90;;;23.50;100.00;100943.38;5186986;28;20099;-83
2022/08/05 08:25:38;;;;;;;43.90;19.88;;;23.00;99.90;;;23.43;100.00;100936.41;5186903;28;20130;-82
2022/08/05 08:28:10;;;;;;;38.20;19.83;;;22.90;99.90;;;23.36;100.00;100949.84;5191081;28;20132;-82
2022/08/05 08:30:42;;;;;;;38.33;19.13;;;22.90;99.90;;;23.34;100.00;100962.25;5173806;28;20049;-83
2022/08/05 08:33:14;;;;;;;37.05;18.35;;;22.80;99.90;;;23.29;100.00;100975.66;5191268;28;20034;-82
2022/08/05 08:35:47;;;;;;;43.80;19.73;;;22.80;99.90;;;23.25;100.00;100969.47;5190613;28;20073;-81
2022/08/05 08:38:20;;;;;;;39.80;19.10;;;22.80;99.90;;;23.26;100.00;100973.88;5173033;28;20100;-82
2022/08/05 08:40:52;;;;;;;38.60;19.17;;;22.70;99.90;;;23.31;100.00;100979.16;5190334;28;20459;-85
2022/08/05 08:43:25;;;;;;;39.65;19.88;;;22.80;99.90;;;23.23;100.00;100976.59;5175053;28;20484;-85
2022/08/05 08:45:59;;;;;;;37.55;18.15;;;22.70;99.90;;;23.08;100.00;100981.25;5191604;28;20457;-84
2022/08/05 08:48:32;;;;;;;33.55;16.63;;;22.60;99.90;;;22.94;100.00;100987.63;5173484;28;20511;-82
2022/08/05 08:51:05;;;;;;;35.08;17.27;;;22.50;99.90;;;22.80;100.00;101000.19;5174255;28;20085;-83
2022/08/05 08:53:40;;;;;;;37.25;16.83;;;22.40;99.90;;;22.60;100.00;100994.22;5174024;28;20042;-85
2022/08/05 08:56:12;;;;;;;;;;;22.20;99.90;;;22.41;100.00;100996.19;5192626;28;20049;-84
2022/08/05 08:58:44;;;;;;;35.63;17.00;;;22.10;99.90;;;22.34;100.00;100997.16;5174892;28;19928;-83
2022/08/05 09:01:17;;;;;;;36.28;16.08;;;21.90;99.90;;;22.36;100.00;100998.91;5174334;28;20057;-85
2022/08/05 09:03:53;;;;;;;35.33;16.77;;;21.90;99.90;;;22.40;100.00;101005.94;5173895;28;20049;-83
2022/08/05 09:06:28;;;;;;;32.22;15.57;;;21.90;99.90;;;22.44;100.00;100999.72;5192334;28;20050;-82
2022/08/05 09:09:02;;;;;;;32.15;15.23;;;22.00;99.90;;;22.53;100.00;100990.75;5174872;28;20046;-82
2022/08/05 09:11:36;;;;;;;31.08;14.98;;;22.10;99.90;;;22.66;100.00;100992.38;5192265;28;20046;-85
2022/08/05 09:14:08;;;;;;;28.00;13.88;;;22.20;99.90;;;22.64;100.00;100990.66;5174877;28;20045;-83
2022/08/05 09:16:41;;;;;;;28.58;14.25;;;22.30;99.90;;;22.72;100.00;100986.13;5192399;28;20042;-84
2022/08/05 09:19:13;;;;;;;25.23;13.13;;;22.30;99.90;;;22.72;100.00;100983.47;5192729;28;20052;-84
2022/08/05 09:21:45;;;;;;;25.08;13.70;;;22.40;99.90;;;22.85;100.00;100990.38;5192154;28;20116;-82
2022/08/05 09:24:18;;;;;;;24.83;13.85;;;22.50;99.90;;;22.99;100.00;100983.13;5167566;28;20097;-85
2022/08/05 09:26:55;;;;;;;27.88;15.32;;;22.60;99.90;;;22.98;100.00;100970.75;5154264;28;20397;-84
2022/08/05 09:29:41;;;;;;;25.67;14.98;;;22.60;99.90;;;23.14;100.00;100967.88;5171899;28;20080;-84
2022/08/05 09:32:13;;;;;;;27.42;15.00;;;22.70;99.90;;;23.43;100.00;100970.13;5161464;28;20053;-85
2022/08/05 09:34:50;;;;;;;26.35;15.00;;;22.90;99.90;;;23.47;100.00;100980.69;5162524;28;20054;-84
2022/08/05 09:37:25;;;;;;;22.83;13.02;;;23.00;99.90;;;23.60;100.00;100985.78;5153403;28;20062;-83
2022/08/05 09:39:58;;;;;;;24.88;14.57;;;23.10;99.90;;;23.71;100.00;100978.56;5165865;28;20043;-83
2022/08/05 09:42:39;;;;;;;23.20;13.55;;;23.20;99.90;;;23.66;100.00;100991.06;5179261;28;20045;-82
2022/08/05 09:45:12;;;;;;;23.05;13.55;;;23.20;99.90;;;23.59;100.00;100995.56;5189820;28;20113;-82
2022/08/05 09:47:44;;;;;;;23.50;13.68;;;23.10;99.90;;;23.39;100.00;101002.97;5191034;28;20046;-83
2022/08/05 09:50:20;;;;;;;21.58;12.25;;;23.00;99.90;;;23.20;100.00;101002.34;5175434;28;20049;-82
2022/08/05 09:52:58;;;;;;;21.80;12.48;;;22.90;99.90;;;23.25;100.00;101005.81;5183735;28;20035;-83
2022/08/05 09:55:37;;;;;;;19.92;11.88;;;22.90;99.90;;;23.29;100.00;101007.56;5180913;28;20096;-82
2022/08/05 09:58:14;;;;;;;20.08;11.43;;;22.90;99.90;;;23.29;100.00;101012.88;5191050;28;20499;-82
2022/08/05 10:00:56;;;;;;;17.20;10.02;;;22.90;99.90;;;23.27;100.00;101015.53;5191115;28;20049;-83
2022/08/05 10:03:29;;;;;;;15.25;9.20;;;22.90;99.90;;;23.22;100.00;101014.75;5173760;28;20042;-82
2022/08/05 10:06:05;;;;;;;18.88;9.77;;;22.90;99.90;;;23.11;100.00;101018.44;5189863;28;20058;-83
2022/08/05 10:08:38;;;;;;;14.25;9.10;;;22.80;99.90;;;23.05;100.00;101031.81;5191805;28;20053;-81
2022/08/05 10:11:16;;;;;;;14.02;9.02;;;22.70;99.90;;;23.04;100.00;101035.38;5174634;28;20076;-82
2022/08/05 10:13:49;;;;;;;17.17;9.75;;;22.70;99.90;;;23.07;100.00;101044.16;5182192;28;20118;-80
2022/08/05 10:16:33;;;;;;;16.20;9.90;;;22.70;99.90;;;23.14;100.00;101052.94;5162230;28;20199;-81
2022/08/05 10:19:06;;;;;;;15.40;10.60;;;22.80;99.90;;;23.04;100.00;101059.31;5191726;28;20086;-81
2022/08/05 10:21:38;;;;;;;19.77;11.65;;;22.70;99.90;;;22.96;100.00;101060.28;5210272;28;20097;-82
2022/08/05 10:24:12;;;;;;;17.70;10.75;;;22.70;99.90;;;23.02;100.00;101068.19;5188238;28;20492;-82
2022/08/05 10:26:50;;;;;;;16.60;11.27;;;22.70;99.90;;;23.07;100.00;101072.53;5166839;28;20468;-81
2022/08/05 10:29:23;;;;;;;13.77;9.18;;;22.80;99.90;;;23.14;100.00;101080.41;5175619;28;20042;-80
2022/08/05 10:31:56;;;;;;;11.32;7.53;;;22.80;99.90;;;23.11;100.00;101084.91;5173328;28;20113;-81